createdAt,value
2022-10-04T00:00:28.443Z,10.62
2022-10-04T00:01:30.962Z,10.62
2022-10-04T00:02:33.513Z,10.64
2022-10-04T00:03:36.011Z,10.62
2022-10-04T00:04:38.846Z,10.63
2022-10-04T00:05:41.306Z,10.62
2022-10-04T00:06:43.908Z,10.65
2022-10-04T00:07:46.364Z,10.61
2022-10-04T00:08:48.806Z,10.59
2022-10-04T00:09:51.289Z,10.53
2022-10-04T00:10:54.026Z,10.54
2022-10-04T00:11:56.474Z,10.62
2022-10-04T00:12:58.917Z,10.69
2022-10-04T00:14:01.368Z,10.61
2022-10-04T00:15:03.839Z,10.64
2022-10-04T00:16:06.817Z,10.55
2022-10-04T00:17:09.384Z,10.56
2022-10-04T00:18:11.832Z,10.58
2022-10-04T00:19:14.287Z,10.64
2022-10-04T00:20:17.333Z,10.65
2022-10-04T00:21:20.112Z,10.69
2022-10-04T00:22:22.560Z,10.68
2022-10-04T00:23:25.015Z,10.75
2022-10-04T00:24:27.454Z,10.74
2022-10-04T00:25:29.904Z,10.75
2022-10-04T00:26:32.482Z,10.71
2022-10-04T00:27:34.935Z,10.70
2022-10-04T00:28:37.371Z,10.72
2022-10-04T00:29:39.826Z,10.69
2022-10-04T00:30:42.475Z,10.62
2022-10-04T00:31:45.442Z,10.62
2022-10-04T00:32:48.108Z,10.64
2022-10-04T00:33:50.557Z,10.65
2022-10-04T00:34:53.036Z,10.64
2022-10-04T00:35:55.484Z,10.68
2022-10-04T00:36:58.269Z,10.64
2022-10-04T00:38:00.736Z,10.62
2022-10-04T00:39:03.202Z,10.67
2022-10-04T00:40:05.971Z,10.70
2022-10-04T00:41:08.406Z,10.65
2022-10-04T00:42:10.881Z,10.64
2022-10-04T00:43:13.343Z,10.64
2022-10-04T00:44:15.784Z,10.61
2022-10-04T00:45:18.266Z,10.60
2022-10-04T00:46:21.374Z,10.56
2022-10-04T00:47:23.981Z,10.58
2022-10-04T00:48:31.074Z,10.62
2022-10-04T00:49:30.806Z,10.75
2022-10-04T00:50:33.603Z,10.72
2022-10-04T00:51:36.071Z,10.77
2022-10-04T00:52:38.559Z,10.83
2022-10-04T00:53:41.037Z,10.81
2022-10-04T00:54:43.483Z,10.81
2022-10-04T00:55:45.965Z,10.87
2022-10-04T00:56:48.605Z,10.86
2022-10-04T00:57:51.125Z,10.90
2022-10-04T00:58:53.579Z,10.82
2022-10-04T00:59:56.025Z,10.80
2022-10-04T01:00:58.763Z,10.81
2022-10-04T01:02:01.318Z,10.85
2022-10-04T01:03:04.023Z,10.83
2022-10-04T01:04:06.704Z,10.84
2022-10-04T01:05:09.167Z,10.86
2022-10-04T01:06:11.715Z,10.80
2022-10-04T01:07:14.159Z,10.76
2022-10-04T01:08:16.723Z,10.70
2022-10-04T01:09:19.161Z,10.73
2022-10-04T01:10:21.802Z,10.67
2022-10-04T01:11:24.247Z,10.76
2022-10-04T01:12:26.685Z,10.77
2022-10-04T01:13:29.164Z,10.75
2022-10-04T01:14:31.663Z,10.73
2022-10-04T01:15:34.156Z,10.72
2022-10-04T01:16:37.175Z,10.72
2022-10-04T01:17:39.701Z,10.79
2022-10-04T01:18:42.204Z,10.69
2022-10-04T01:19:44.645Z,10.76
2022-10-04T01:20:47.223Z,10.65
2022-10-04T01:21:50.054Z,10.68
2022-10-04T01:22:52.495Z,10.61
2022-10-04T01:23:55.270Z,10.55
2022-10-04T01:24:57.722Z,10.59
2022-10-04T01:26:00.164Z,10.63
2022-10-04T01:27:02.597Z,10.56
2022-10-04T01:28:05.085Z,10.57
2022-10-04T01:29:07.779Z,10.64
2022-10-04T01:30:11.286Z,10.66
2022-10-04T01:31:13.827Z,10.61
2022-10-04T01:32:16.602Z,10.63
2022-10-04T01:33:19.044Z,10.57
2022-10-04T01:34:21.514Z,10.56
2022-10-04T01:35:23.945Z,10.53
2022-10-04T01:36:26.981Z,10.53
2022-10-04T01:37:29.422Z,10.56
2022-10-04T01:38:31.857Z,10.51
2022-10-04T01:39:34.343Z,10.44
2022-10-04T01:40:36.980Z,10.51
2022-10-04T01:41:39.868Z,10.49
2022-10-04T01:42:42.421Z,10.51
2022-10-04T01:43:44.857Z,10.49
2022-10-04T01:44:47.316Z,10.45
2022-10-04T01:45:49.769Z,10.44
2022-10-04T01:46:52.509Z,10.44
2022-10-04T01:47:55.073Z,10.40
2022-10-04T01:48:57.554Z,10.37
2022-10-04T01:50:00.149Z,10.29
2022-10-04T01:51:02.692Z,10.35
2022-10-04T01:52:05.122Z,10.34
2022-10-04T01:53:07.592Z,10.32
2022-10-04T01:54:10.034Z,10.36
2022-10-04T01:55:12.503Z,10.35
2022-10-04T01:56:15.242Z,10.29
2022-10-04T01:57:17.827Z,10.26
2022-10-04T01:58:20.263Z,10.23
2022-10-04T01:59:22.704Z,10.27
2022-10-04T02:00:25.340Z,10.25
2022-10-04T02:01:27.866Z,10.26
2022-10-04T02:02:30.627Z,10.23
2022-10-04T02:03:33.142Z,10.18
2022-10-04T02:04:35.688Z,10.15
2022-10-04T02:05:38.434Z,10.18
2022-10-04T02:06:40.970Z,10.21
2022-10-04T02:07:43.409Z,10.18
2022-10-04T02:08:45.877Z,10.15
2022-10-04T02:09:48.352Z,10.13
2022-10-04T02:10:51.037Z,10.09
2022-10-04T02:11:53.473Z,10.00
2022-10-04T02:12:55.901Z,10.10
2022-10-04T02:13:58.345Z,10.13
2022-10-04T02:15:01.086Z,10.16
2022-10-04T02:16:03.845Z,10.16
2022-10-04T02:17:06.304Z,10.07
2022-10-04T02:18:08.738Z,10.13
2022-10-04T02:19:11.192Z,10.06
2022-10-04T02:20:14.473Z,10.03
2022-10-04T02:21:16.947Z,10.06
2022-10-04T02:22:19.382Z,10.02
2022-10-04T02:23:21.814Z,10.05
2022-10-04T02:24:24.276Z,10.01
2022-10-04T02:25:26.745Z,10.01
2022-10-04T02:26:29.220Z,9.96
2022-10-04T02:27:31.659Z,9.93
2022-10-04T02:28:34.152Z,9.92
2022-10-04T02:29:36.642Z,9.87
2022-10-04T02:30:39.609Z,9.81
2022-10-04T02:31:42.333Z,9.80
2022-10-04T02:32:45.339Z,9.83
2022-10-04T02:33:47.766Z,9.82
2022-10-04T02:34:50.236Z,9.93
2022-10-04T02:35:52.670Z,9.88
2022-10-04T02:36:55.343Z,9.89
2022-10-04T02:37:57.786Z,9.87
2022-10-04T02:39:00.318Z,9.91
2022-10-04T02:40:03.069Z,9.88
2022-10-04T02:41:05.501Z,9.89
2022-10-04T02:42:07.970Z,9.88
2022-10-04T02:43:10.413Z,9.77
2022-10-04T02:44:12.843Z,9.80
2022-10-04T02:45:15.288Z,9.78
2022-10-04T02:46:17.856Z,9.68
2022-10-04T02:47:20.292Z,9.68
2022-10-04T02:48:23.051Z,9.69
2022-10-04T02:49:25.483Z,9.76
2022-10-04T02:50:27.920Z,9.76
2022-10-04T02:51:30.353Z,9.73
2022-10-04T02:52:32.820Z,9.73
2022-10-04T02:53:35.282Z,9.71
2022-10-04T02:54:37.723Z,9.70
2022-10-04T02:55:40.150Z,9.69
2022-10-04T02:56:42.578Z,9.67
2022-10-04T02:57:45.054Z,9.59
2022-10-04T02:58:47.487Z,9.62
2022-10-04T02:59:49.924Z,9.56
2022-10-04T03:00:52.737Z,9.55
2022-10-04T03:01:55.754Z,9.57
2022-10-04T03:02:58.408Z,9.50
2022-10-04T03:04:00.936Z,9.51
2022-10-04T03:05:03.367Z,9.49
2022-10-04T03:06:06.005Z,9.46
2022-10-04T03:07:08.745Z,9.45
2022-10-04T03:08:11.216Z,9.47
2022-10-04T03:09:13.694Z,9.48
2022-10-04T03:10:16.435Z,9.49
2022-10-04T03:11:18.870Z,9.49
2022-10-04T03:12:21.410Z,9.52
2022-10-04T03:13:23.885Z,9.48
2022-10-04T03:14:26.323Z,9.47
2022-10-04T03:15:28.757Z,9.40
2022-10-04T03:16:31.250Z,9.43
2022-10-04T03:17:33.862Z,9.39
2022-10-04T03:18:36.329Z,9.34
2022-10-04T03:19:38.777Z,9.34
2022-10-04T03:20:41.679Z,9.35
2022-10-04T03:21:44.363Z,9.37
2022-10-04T03:22:47.393Z,9.33
2022-10-04T03:23:49.916Z,9.35
2022-10-04T03:24:52.474Z,9.39
2022-10-04T03:25:54.906Z,9.40
2022-10-04T03:26:57.547Z,9.37
2022-10-04T03:28:00.090Z,9.34
2022-10-04T03:29:02.908Z,9.35
2022-10-04T03:30:05.646Z,9.33
2022-10-04T03:31:08.277Z,9.29
2022-10-04T03:32:10.963Z,9.34
2022-10-04T03:33:13.410Z,9.25
2022-10-04T03:34:15.875Z,9.29
2022-10-04T03:35:18.358Z,9.31
2022-10-04T03:36:21.120Z,9.34
2022-10-04T03:37:23.595Z,9.31
2022-10-04T03:38:26.050Z,9.29
2022-10-04T03:39:28.545Z,9.35
2022-10-04T03:40:31.085Z,9.35
2022-10-04T03:41:33.734Z,9.33
2022-10-04T03:42:36.173Z,9.27
2022-10-04T03:43:38.649Z,9.26
2022-10-04T03:44:41.127Z,9.24
2022-10-04T03:45:43.605Z,9.27
2022-10-04T03:46:46.146Z,9.29
2022-10-04T03:47:48.612Z,9.26
2022-10-04T03:48:51.026Z,9.26
2022-10-04T03:49:53.509Z,9.23
2022-10-04T03:50:56.208Z,9.17
2022-10-04T03:51:58.671Z,9.17
2022-10-04T03:53:01.115Z,9.15
2022-10-04T03:54:03.553Z,9.24
2022-10-04T03:55:06.042Z,9.19
2022-10-04T03:56:08.998Z,9.25
2022-10-04T03:57:11.435Z,9.20
2022-10-04T03:58:13.900Z,9.22
2022-10-04T03:59:16.341Z,9.18
2022-10-04T04:00:19.629Z,9.18
2022-10-04T04:01:22.344Z,9.22
2022-10-04T04:02:24.997Z,9.22
2022-10-04T04:03:27.500Z,9.20
2022-10-04T04:04:29.938Z,9.25
2022-10-04T04:05:32.425Z,9.30
2022-10-04T04:06:35.070Z,9.28
2022-10-04T04:07:37.720Z,9.38
2022-10-04T04:08:40.277Z,9.37
2022-10-04T04:09:42.717Z,9.31
2022-10-04T04:10:45.410Z,9.38
2022-10-04T04:11:47.853Z,9.40
2022-10-04T04:12:50.345Z,9.39
2022-10-04T04:13:52.789Z,9.43
2022-10-04T04:14:55.325Z,9.48
2022-10-04T04:15:57.874Z,9.51
2022-10-04T04:17:00.499Z,9.55
2022-10-04T04:18:02.942Z,9.52
2022-10-04T04:19:05.384Z,9.56
2022-10-04T04:20:08.550Z,9.65
2022-10-04T04:21:11.312Z,9.69
2022-10-04T04:22:14.348Z,9.79
2022-10-04T04:23:16.812Z,9.78
2022-10-04T04:24:19.266Z,9.83
2022-10-04T04:25:21.710Z,9.87
2022-10-04T04:26:24.599Z,9.95
2022-10-04T04:27:29.165Z,9.93
2022-10-04T04:28:31.454Z,9.97
2022-10-04T04:29:34.063Z,10.06
2022-10-04T04:30:36.745Z,10.08
2022-10-04T04:31:39.301Z,10.19
2022-10-04T04:32:42.087Z,10.20
2022-10-04T04:33:44.530Z,10.28
2022-10-04T04:34:47.017Z,10.18
2022-10-04T04:35:49.460Z,10.28
2022-10-04T04:36:52.153Z,10.29
2022-10-04T04:37:54.600Z,10.40
2022-10-04T04:38:57.038Z,10.51
2022-10-04T04:39:59.476Z,10.62
2022-10-04T04:41:02.242Z,10.68
2022-10-04T04:42:04.721Z,10.63
2022-10-04T04:43:07.210Z,10.70
2022-10-04T04:44:09.656Z,10.74
2022-10-04T04:45:12.100Z,10.85
2022-10-04T04:46:27.218Z,10.89
2022-10-04T04:47:19.360Z,10.95
2022-10-04T04:48:21.809Z,10.92
2022-10-04T04:49:24.257Z,10.81
2022-10-04T04:50:26.801Z,10.72
2022-10-04T04:51:29.238Z,10.68
2022-10-04T04:52:31.715Z,10.80
2022-10-04T04:53:34.158Z,10.74
2022-10-04T04:54:36.623Z,10.73
2022-10-04T04:55:56.727Z,10.75
2022-10-04T04:56:43.524Z,10.89
2022-10-04T04:57:45.994Z,10.92
2022-10-04T04:58:48.438Z,10.91
2022-10-04T04:59:50.919Z,10.99
2022-10-04T05:00:53.571Z,11.04
2022-10-04T05:01:56.648Z,11.03
2022-10-04T05:02:59.206Z,10.99
2022-10-04T05:04:01.678Z,11.04
2022-10-04T05:05:04.151Z,11.04
2022-10-04T05:06:06.901Z,10.97
2022-10-04T05:07:09.411Z,10.99
2022-10-04T05:08:11.911Z,11.01
2022-10-04T05:09:14.359Z,11.05
2022-10-04T05:10:17.242Z,11.12
2022-10-04T05:11:19.686Z,11.16
2022-10-04T05:12:22.126Z,11.22
2022-10-04T05:13:24.607Z,11.21
2022-10-04T05:14:27.046Z,11.16
2022-10-04T05:15:29.529Z,11.08
2022-10-04T05:16:32.135Z,11.17
2022-10-04T05:17:34.631Z,11.23
2022-10-04T05:18:37.107Z,11.17
2022-10-04T05:19:39.579Z,11.26
2022-10-04T05:20:42.447Z,11.17
2022-10-04T05:21:45.144Z,11.22
2022-10-04T05:22:48.049Z,11.30
2022-10-04T05:23:50.543Z,11.11
2022-10-04T05:24:53.036Z,11.14
2022-10-04T05:25:55.476Z,11.19
2022-10-04T05:26:58.125Z,11.20
2022-10-04T05:28:00.714Z,11.26
2022-10-04T05:29:03.483Z,11.32
2022-10-04T05:31:16.251Z,11.35
2022-10-04T05:32:18.744Z,11.25
2022-10-04T05:33:21.191Z,11.21
2022-10-04T05:34:23.676Z,11.29
2022-10-04T05:35:26.219Z,11.26
2022-10-04T05:36:28.867Z,11.26
2022-10-04T05:37:31.309Z,11.27
2022-10-04T05:38:33.812Z,11.27
2022-10-04T05:39:36.304Z,11.19
2022-10-04T05:40:38.946Z,11.19
2022-10-04T05:41:41.385Z,11.20
2022-10-04T05:42:44.003Z,11.17
2022-10-04T05:43:46.447Z,11.12
2022-10-04T05:44:48.921Z,11.15
2022-10-04T05:45:51.425Z,11.19
2022-10-04T05:46:54.314Z,11.20
2022-10-04T05:47:56.760Z,11.17
2022-10-04T05:48:59.207Z,11.18
2022-10-04T05:50:01.697Z,11.14
2022-10-04T05:51:04.171Z,11.18
2022-10-04T05:52:06.816Z,11.23
2022-10-04T05:53:09.253Z,11.23
2022-10-04T05:54:11.712Z,11.24
2022-10-04T05:55:14.181Z,11.28
2022-10-04T05:56:16.847Z,11.26
2022-10-04T05:57:19.315Z,11.23
2022-10-04T05:58:21.799Z,11.24
2022-10-04T05:59:24.250Z,11.17
2022-10-04T06:00:26.923Z,11.12
2022-10-04T06:01:29.510Z,11.12
2022-10-04T06:02:32.090Z,11.15
2022-10-04T06:03:34.659Z,11.20
2022-10-04T06:04:37.134Z,11.33
2022-10-04T06:05:39.657Z,11.31
2022-10-04T06:06:42.305Z,11.17
2022-10-04T06:07:44.754Z,11.19
2022-10-04T06:08:47.203Z,11.18
2022-10-04T06:09:49.660Z,11.19
2022-10-04T06:10:52.458Z,11.32
2022-10-04T06:11:54.917Z,11.38
2022-10-04T06:12:57.361Z,11.41
2022-10-04T06:13:59.828Z,11.58
2022-10-04T06:15:02.274Z,11.63
2022-10-04T06:16:04.839Z,11.78
2022-10-04T06:17:07.384Z,11.80
2022-10-04T06:18:10.131Z,11.84
2022-10-04T06:19:12.607Z,11.93
2022-10-04T06:20:15.456Z,11.95
2022-10-04T06:21:18.745Z,12.13
2022-10-04T06:22:21.385Z,12.30
2022-10-04T06:23:24.131Z,12.39
2022-10-04T06:24:27.209Z,12.55
2022-10-04T06:25:29.778Z,12.74
2022-10-04T06:26:32.482Z,12.92
2022-10-04T06:27:34.924Z,13.09
2022-10-04T06:28:37.396Z,13.26
2022-10-04T06:29:39.919Z,13.39
2022-10-04T06:30:42.486Z,13.38
2022-10-04T06:31:45.430Z,13.60
2022-10-04T06:32:48.405Z,13.86
2022-10-04T06:33:50.878Z,14.11
2022-10-04T06:34:53.365Z,14.36
2022-10-04T06:35:55.813Z,14.46
2022-10-04T06:36:58.508Z,14.49
2022-10-04T06:38:02.478Z,14.61
2022-10-04T06:39:05.040Z,14.80
2022-10-04T06:40:07.998Z,14.56
2022-10-04T06:41:10.446Z,14.76
2022-10-04T06:42:12.909Z,14.88
2022-10-04T06:43:15.988Z,14.86
2022-10-04T06:44:18.429Z,15.04
2022-10-04T06:45:20.920Z,14.97
2022-10-04T06:46:23.792Z,15.10
2022-10-04T06:47:26.327Z,15.02
2022-10-04T06:48:28.768Z,14.95
2022-10-04T06:49:31.217Z,14.89
2022-10-04T06:50:33.794Z,14.79
2022-10-04T06:51:36.344Z,14.58
2022-10-04T06:52:38.863Z,14.42
2022-10-04T06:53:41.325Z,14.36
2022-10-04T06:54:43.757Z,14.43
2022-10-04T06:55:46.224Z,14.43
2022-10-04T06:56:48.890Z,14.54
2022-10-04T06:57:51.368Z,14.37
2022-10-04T06:58:53.833Z,14.57
2022-10-04T06:59:56.273Z,14.78
2022-10-04T07:00:58.955Z,14.78
2022-10-04T07:02:01.602Z,14.67
2022-10-04T07:03:04.383Z,14.74
2022-10-04T07:04:06.830Z,14.89
2022-10-04T07:05:09.867Z,15.11
2022-10-04T07:06:13.266Z,15.03
2022-10-04T07:07:15.862Z,14.96
2022-10-04T07:08:18.362Z,14.84
2022-10-04T07:09:20.928Z,14.98
2022-10-04T07:10:23.581Z,14.88
2022-10-04T07:11:26.036Z,14.75
2022-10-04T07:12:28.566Z,14.74
2022-10-04T07:13:31.062Z,14.62
2022-10-04T07:14:33.503Z,14.50
2022-10-04T07:15:35.991Z,14.57
2022-10-04T07:16:38.727Z,14.62
2022-10-04T07:18:51.367Z,14.93
2022-10-04T07:19:53.816Z,14.94
2022-10-04T07:20:56.484Z,14.90
2022-10-04T07:21:59.034Z,15.13
2022-10-04T07:23:01.458Z,15.31
2022-10-04T07:24:03.981Z,15.50
2022-10-04T07:25:06.522Z,15.64
2022-10-04T07:26:09.160Z,15.57
2022-10-04T07:27:11.612Z,15.71
2022-10-04T07:28:14.170Z,15.79
2022-10-04T07:29:16.966Z,15.77
2022-10-04T07:30:19.529Z,15.74
2022-10-04T07:31:21.990Z,15.95
2022-10-04T07:32:24.527Z,16.11
2022-10-04T07:33:26.970Z,16.09
2022-10-04T07:34:29.464Z,16.22
2022-10-04T07:35:31.907Z,16.29
2022-10-04T07:36:34.663Z,16.38
2022-10-04T07:37:37.128Z,16.62
2022-10-04T07:38:39.555Z,16.72
2022-10-04T07:39:42.035Z,16.78
2022-10-04T07:40:44.678Z,16.77
2022-10-04T07:41:47.122Z,16.69
2022-10-04T07:42:49.712Z,16.78
2022-10-04T07:43:52.179Z,16.59
2022-10-04T07:44:54.647Z,16.49
2022-10-04T07:45:57.248Z,16.42
2022-10-04T07:47:00.146Z,16.39
2022-10-04T07:48:02.893Z,16.20
2022-10-04T07:49:05.333Z,16.16
2022-10-04T07:50:08.113Z,16.08
2022-10-04T07:51:10.562Z,15.83
2022-10-04T07:52:13.215Z,15.69
2022-10-04T07:53:15.658Z,15.51
2022-10-04T07:54:18.106Z,15.63
2022-10-04T07:55:20.589Z,15.74
2022-10-04T07:56:23.185Z,15.67
2022-10-04T07:57:25.631Z,15.80
2022-10-04T07:58:28.082Z,15.76
2022-10-04T07:59:30.521Z,15.63
2022-10-04T08:00:33.303Z,15.56
2022-10-04T08:01:35.787Z,15.73
2022-10-04T08:02:38.458Z,15.87
2022-10-04T08:03:41.477Z,16.01
2022-10-04T08:04:43.928Z,15.99
2022-10-04T08:05:46.401Z,15.98
2022-10-04T08:06:48.993Z,15.76
2022-10-04T08:07:51.523Z,15.94
2022-10-04T08:08:53.969Z,16.09
2022-10-04T08:09:56.411Z,15.96
2022-10-04T08:10:59.096Z,15.64
2022-10-04T08:12:01.532Z,15.55
2022-10-04T08:13:03.966Z,15.29
2022-10-04T08:14:06.449Z,15.44
2022-10-04T08:15:08.904Z,15.49
2022-10-04T08:16:12.138Z,15.48
2022-10-04T08:17:15.877Z,15.39
2022-10-04T08:18:18.649Z,15.32
2022-10-04T08:19:21.095Z,15.15
2022-10-04T08:20:23.637Z,15.11
2022-10-04T08:21:26.323Z,15.12
2022-10-04T08:22:28.967Z,15.04
2022-10-04T08:23:31.421Z,14.85
2022-10-04T08:24:33.982Z,14.81
2022-10-04T08:25:36.439Z,14.76
2022-10-04T08:26:39.345Z,14.79
2022-10-04T08:27:41.791Z,14.73
2022-10-04T08:28:44.383Z,14.55
2022-10-04T08:29:46.966Z,14.49
2022-10-04T08:30:49.751Z,14.49
2022-10-04T08:31:52.299Z,14.37
2022-10-04T08:32:54.733Z,14.34
2022-10-04T08:33:57.171Z,14.44
2022-10-04T08:34:59.615Z,14.54
2022-10-04T08:36:02.062Z,14.67
2022-10-04T08:37:04.583Z,14.65
2022-10-04T08:38:07.026Z,14.78
2022-10-04T08:39:09.465Z,14.80
2022-10-04T08:40:13.228Z,14.92
2022-10-04T08:41:16.123Z,15.05
2022-10-04T08:42:18.915Z,15.13
2022-10-04T08:43:21.361Z,15.27
2022-10-04T08:44:23.806Z,15.49
2022-10-04T08:45:26.249Z,15.73
2022-10-04T08:46:28.927Z,15.94
2022-10-04T08:47:31.500Z,16.12
2022-10-04T08:48:33.950Z,16.33
2022-10-04T08:49:36.394Z,16.51
2022-10-04T08:50:38.932Z,16.67
2022-10-04T08:51:41.383Z,16.51
2022-10-04T08:52:43.864Z,16.71
2022-10-04T08:53:46.310Z,16.79
2022-10-04T08:54:48.796Z,16.73
2022-10-04T08:55:51.243Z,16.82
2022-10-04T08:56:54.003Z,16.87
2022-10-04T08:57:56.484Z,17.07
2022-10-04T08:58:58.928Z,16.72
2022-10-04T09:00:01.377Z,16.74
2022-10-04T09:01:04.130Z,16.69
2022-10-04T09:02:06.815Z,16.70
2022-10-04T09:03:09.349Z,16.62
2022-10-04T09:04:12.174Z,16.27
2022-10-04T09:05:14.718Z,16.16
2022-10-04T09:06:17.362Z,16.10
2022-10-04T09:07:19.801Z,16.03
2022-10-04T09:08:22.705Z,15.83
2022-10-04T09:09:25.206Z,15.82
2022-10-04T09:10:27.783Z,15.80
2022-10-04T09:11:30.229Z,15.73
2022-10-04T09:12:32.691Z,15.56
2022-10-04T09:13:35.165Z,15.55
2022-10-04T09:14:37.616Z,15.38
2022-10-04T09:15:40.117Z,15.38
2022-10-04T09:16:43.285Z,15.39
2022-10-04T09:17:46.159Z,15.32
2022-10-04T09:18:48.633Z,15.37
2022-10-04T09:19:51.073Z,15.36
2022-10-04T09:20:53.810Z,15.32
2022-10-04T09:21:56.300Z,15.41
2022-10-04T09:23:01.778Z,15.49
2022-10-04T09:24:03.197Z,15.41
2022-10-04T09:25:05.659Z,15.46
2022-10-04T09:26:09.340Z,15.43
2022-10-04T09:27:11.788Z,15.45
2022-10-04T09:28:14.278Z,15.52
2022-10-04T09:29:16.745Z,15.60
2022-10-04T09:30:19.426Z,15.69
2022-10-04T09:31:21.934Z,15.71
2022-10-04T09:32:24.417Z,15.79
2022-10-04T09:33:26.887Z,15.87
2022-10-04T09:34:31.685Z,15.82
2022-10-04T09:35:33.753Z,15.82
2022-10-04T09:36:36.577Z,15.80
2022-10-04T09:37:39.011Z,15.73
2022-10-04T09:38:41.440Z,15.65
2022-10-04T09:39:44.349Z,15.73
2022-10-04T09:40:47.478Z,15.77
2022-10-04T09:41:50.028Z,15.70
2022-10-04T09:42:52.468Z,15.69
2022-10-04T09:43:54.912Z,15.61
2022-10-04T09:44:57.375Z,15.57
2022-10-04T09:45:59.860Z,15.66
2022-10-04T09:47:02.449Z,15.58
2022-10-04T09:48:05.117Z,15.58
2022-10-04T09:49:07.597Z,15.57
2022-10-04T09:50:10.572Z,15.45
2022-10-04T09:51:13.000Z,15.47
2022-10-04T09:52:15.496Z,15.41
2022-10-04T09:53:17.932Z,15.40
2022-10-04T09:54:20.381Z,15.44
2022-10-04T09:55:22.884Z,15.31
2022-10-04T09:56:25.518Z,15.42
2022-10-04T09:57:27.955Z,15.31
2022-10-04T09:58:30.418Z,15.27
2022-10-04T09:59:32.893Z,15.26
2022-10-04T10:00:35.799Z,15.29
2022-10-04T10:01:38.459Z,15.27
2022-10-04T10:02:40.934Z,15.17
2022-10-04T10:03:43.434Z,15.14
2022-10-04T10:04:45.977Z,15.09
2022-10-04T10:05:48.457Z,15.11
2022-10-04T10:06:51.333Z,15.09
2022-10-04T10:07:53.771Z,15.01
2022-10-04T10:08:56.233Z,14.89
2022-10-04T10:09:58.681Z,14.83
2022-10-04T10:11:01.368Z,14.82
2022-10-04T10:12:04.013Z,14.86
2022-10-04T10:13:06.451Z,14.85
2022-10-04T10:14:08.906Z,14.81
2022-10-04T10:15:11.388Z,14.70
2022-10-04T10:16:14.206Z,14.76
2022-10-04T10:17:16.801Z,14.74
2022-10-04T10:18:19.249Z,14.69
2022-10-04T10:19:26.135Z,14.68
2022-10-04T10:20:26.350Z,14.63
2022-10-04T10:21:28.854Z,14.60
2022-10-04T10:22:31.588Z,14.54
2022-10-04T10:23:34.029Z,14.55
2022-10-04T10:24:36.479Z,14.58
2022-10-04T10:25:38.982Z,14.55
2022-10-04T10:26:42.132Z,14.51
2022-10-04T10:27:45.024Z,14.52
2022-10-04T10:28:47.490Z,14.50
2022-10-04T10:29:49.964Z,14.55
2022-10-04T10:30:52.788Z,14.65
2022-10-04T10:31:55.314Z,14.68
2022-10-04T10:32:57.750Z,14.65
2022-10-04T10:34:00.221Z,14.62
2022-10-04T10:35:02.720Z,14.61
2022-10-04T10:36:05.496Z,14.63
2022-10-04T10:37:07.998Z,14.62
2022-10-04T10:38:10.448Z,14.63
2022-10-04T10:39:12.917Z,14.65
2022-10-04T10:40:16.056Z,14.61
2022-10-04T10:41:18.501Z,14.64
2022-10-04T10:42:21.194Z,14.68
2022-10-04T10:43:23.664Z,14.76
2022-10-04T10:44:26.102Z,14.76
2022-10-04T10:45:28.536Z,14.77
2022-10-04T10:46:31.583Z,14.80
2022-10-04T10:47:34.261Z,14.80
2022-10-04T10:48:36.725Z,14.86
2022-10-04T10:49:39.170Z,14.96
2022-10-04T10:50:41.882Z,15.06
2022-10-04T10:51:44.327Z,15.11
2022-10-04T10:52:46.794Z,15.14
2022-10-04T10:53:49.239Z,15.06
2022-10-04T10:54:51.697Z,15.06
2022-10-04T10:55:54.130Z,15.11
2022-10-04T10:56:57.002Z,15.16
2022-10-04T10:57:59.474Z,15.27
2022-10-04T10:59:01.911Z,15.33
2022-10-04T11:00:04.371Z,15.55
2022-10-04T11:01:06.813Z,15.81
2022-10-04T11:02:09.344Z,16.11
2022-10-04T11:03:14.168Z,16.17
2022-10-04T11:04:16.546Z,16.40
2022-10-04T11:05:18.985Z,16.65
2022-10-04T11:06:21.633Z,16.84
2022-10-04T11:07:24.195Z,17.10
2022-10-04T11:08:26.695Z,17.26
2022-10-04T11:09:29.142Z,17.34
2022-10-04T11:10:31.990Z,17.40
2022-10-04T11:11:34.440Z,17.37
2022-10-04T11:12:36.888Z,17.25
2022-10-04T11:13:39.422Z,17.18
2022-10-04T11:14:41.863Z,17.03
2022-10-04T11:15:44.342Z,16.97
2022-10-04T11:16:47.744Z,16.90
2022-10-04T11:17:50.698Z,16.82
2022-10-04T11:18:53.169Z,16.85
2022-10-04T11:19:55.627Z,16.86
2022-10-04T11:20:58.371Z,17.06
2022-10-04T11:22:02.533Z,17.25
2022-10-04T11:23:04.975Z,17.42
2022-10-04T11:24:07.453Z,17.53
2022-10-04T11:25:09.914Z,17.56
2022-10-04T11:26:12.653Z,17.63
2022-10-04T11:27:15.089Z,17.47
2022-10-04T11:28:17.611Z,17.64
2022-10-04T11:29:20.372Z,17.65
2022-10-04T11:30:23.010Z,17.59
2022-10-04T11:31:25.494Z,17.58
2022-10-04T11:32:27.999Z,17.49
2022-10-04T11:33:30.442Z,17.44
2022-10-04T11:34:33.008Z,17.44
2022-10-04T11:35:35.463Z,17.46
2022-10-04T11:36:38.106Z,17.35
2022-10-04T11:37:40.572Z,17.17
2022-10-04T11:38:43.060Z,17.05
2022-10-04T11:39:45.558Z,17.01
2022-10-04T11:40:48.091Z,16.85
2022-10-04T11:41:50.825Z,16.81
2022-10-04T11:42:53.259Z,16.78
2022-10-04T11:43:55.739Z,16.78
2022-10-04T11:44:58.367Z,16.51
2022-10-04T11:46:00.825Z,16.48
2022-10-04T11:47:03.677Z,16.39
2022-10-04T11:48:06.239Z,16.42
2022-10-04T11:49:08.688Z,16.39
2022-10-04T11:50:11.873Z,16.40
2022-10-04T11:51:14.330Z,16.30
2022-10-04T11:52:16.778Z,16.22
2022-10-04T11:53:19.235Z,16.23
2022-10-04T11:54:21.676Z,16.36
2022-10-04T11:55:24.169Z,16.44
2022-10-04T11:56:26.914Z,16.54
2022-10-04T11:57:29.478Z,16.66
2022-10-04T11:58:31.935Z,16.77
2022-10-04T11:59:34.367Z,16.85
2022-10-04T12:00:37.064Z,16.89
2022-10-04T12:01:39.501Z,16.87
2022-10-04T12:02:41.946Z,16.89
2022-10-04T12:03:44.594Z,16.89
2022-10-04T12:04:47.536Z,16.89
2022-10-04T12:05:50.418Z,16.95
2022-10-04T12:06:53.386Z,17.03
2022-10-04T12:07:55.837Z,17.02
2022-10-04T12:08:58.281Z,16.97
2022-10-04T12:10:01.235Z,16.74
2022-10-04T12:11:04.131Z,16.74
2022-10-04T12:12:06.618Z,16.77
2022-10-04T12:13:09.264Z,16.79
2022-10-04T12:14:11.705Z,16.61
2022-10-04T12:15:14.179Z,16.51
2022-10-04T12:16:16.852Z,16.35
2022-10-04T12:17:19.431Z,16.24
2022-10-04T12:18:21.873Z,16.14
2022-10-04T12:19:24.340Z,16.14
2022-10-04T12:20:27.084Z,16.11
2022-10-04T12:21:29.598Z,16.02
2022-10-04T12:22:32.063Z,15.80
2022-10-04T12:23:34.501Z,15.76
2022-10-04T12:24:36.978Z,15.64
2022-10-04T12:25:39.568Z,15.55
2022-10-04T12:26:42.882Z,15.50
2022-10-04T12:27:45.958Z,15.43
2022-10-04T12:28:48.417Z,15.36
2022-10-04T12:29:50.864Z,15.26
2022-10-04T12:30:53.516Z,15.29
2022-10-04T12:31:56.113Z,15.25
2022-10-04T12:32:58.696Z,15.19
2022-10-04T12:34:01.158Z,15.14
2022-10-04T12:35:04.213Z,15.02
2022-10-04T12:36:06.860Z,14.92
2022-10-04T12:37:09.813Z,14.83
2022-10-04T12:38:13.016Z,14.80
2022-10-04T12:39:15.469Z,14.65
2022-10-04T12:40:18.146Z,14.72
2022-10-04T12:41:21.457Z,14.69
2022-10-04T12:42:23.940Z,14.68
2022-10-04T12:43:26.386Z,14.67
2022-10-04T12:44:28.851Z,14.62
2022-10-04T12:45:31.369Z,14.58
2022-10-04T12:46:33.881Z,14.65
2022-10-04T12:47:36.374Z,14.63
2022-10-04T12:48:38.823Z,14.53
2022-10-04T12:49:41.262Z,14.52
2022-10-04T12:50:43.908Z,14.57
2022-10-04T12:51:46.375Z,14.56
2022-10-04T12:52:48.866Z,14.59
2022-10-04T12:53:52.844Z,14.48
2022-10-04T12:54:55.682Z,14.47
2022-10-04T12:55:58.127Z,14.46
2022-10-04T12:57:00.898Z,14.52
2022-10-04T12:58:03.368Z,14.58
2022-10-04T12:59:05.810Z,14.49
2022-10-04T13:00:08.559Z,14.46
2022-10-04T13:01:11.349Z,14.41
2022-10-04T13:02:13.915Z,14.38
2022-10-04T13:03:16.632Z,14.45
2022-10-04T13:04:19.118Z,14.40
2022-10-04T13:05:21.548Z,14.37
2022-10-04T13:06:24.310Z,14.31
2022-10-04T13:07:26.776Z,14.19
2022-10-04T13:08:29.251Z,14.17
2022-10-04T13:09:31.699Z,14.20
2022-10-04T13:10:34.379Z,14.20
2022-10-04T13:11:36.819Z,14.23
2022-10-04T13:12:39.266Z,14.20
2022-10-04T13:13:42.148Z,14.20
2022-10-04T13:14:44.590Z,14.17
2022-10-04T13:17:56.015Z,14.06
2022-10-04T13:18:58.496Z,14.05
2022-10-04T13:20:00.931Z,14.05
2022-10-04T13:21:03.379Z,14.02
2022-10-04T13:22:05.829Z,13.98
2022-10-04T13:23:08.271Z,13.96
2022-10-04T13:24:10.781Z,13.98
2022-10-04T13:25:13.271Z,13.90
2022-10-04T13:26:15.917Z,13.88
2022-10-04T13:27:18.371Z,13.83
2022-10-04T13:28:20.877Z,13.86
2022-10-04T13:29:23.705Z,13.88
2022-10-04T13:30:26.561Z,13.84
2022-10-04T13:31:29.081Z,13.84
2022-10-04T13:32:31.567Z,13.81
2022-10-04T13:33:34.009Z,13.84
2022-10-04T13:34:36.533Z,13.85